North Apollo, Pennsylvania
Current Conditions -  °F | °C
As of 8:55 PM on Thursday 18 Dec 2014 (Local Time) from KBTP Reporting Station
Overcast Overcast  
Wind Chill: 19°   Ceiling: 1200
Heat Index: 27°   Visibility: 8mi
Dew Point: 23°   Wind: 7mph
Humidity: 86%   Direction: 250°WSW
Pressure: 30.14"   Gusts: NA
Location:  40.6°N, 79.56°W
Report Text: KBTP 190155Z AUTO 25006KT 8SM OVC012 M03/M05 A3014 RMK AO1
Loading
Personal Weather Stations






























Interactive Weather Map New forecast layout! Learn more

10-Day Weather Forecast

Advertisements
Track Severe Weather on mobile